sensor_id;sensor_type;location;lat;lon;timestamp;P1;durP1;ratioP1;P2;durP2;ratioP2
19235;SDS011;9752;54.270;12.470;2023-02-13T00:02:38;10.43;;;9.27;;
19235;SDS011;9752;54.270;12.470;2023-02-13T00:07:40;11.50;;;9.67;;
19235;SDS011;9752;54.270;12.470;2023-02-13T00:12:43;11.50;;;10.47;;
19235;SDS011;9752;54.270;12.470;2023-02-13T00:17:45;11.07;;;10.00;;
19235;SDS011;9752;54.270;12.470;2023-02-13T00:22:46;11.57;;;10.57;;
19235;SDS011;9752;54.270;12.470;2023-02-13T00:27:51;12.17;;;11.13;;
19235;SDS011;9752;54.270;12.470;2023-02-13T00:32:53;12.27;;;11.07;;
19235;SDS011;9752;54.270;12.470;2023-02-13T00:37:57;11.43;;;10.50;;
19235;SDS011;9752;54.270;12.470;2023-02-13T00:43:00;15.07;;;11.80;;
19235;SDS011;9752;54.270;12.470;2023-02-13T00:48:02;11.03;;;10.03;;
19235;SDS011;9752;54.270;12.470;2023-02-13T00:53:04;13.20;;;10.97;;
19235;SDS011;9752;54.270;12.470;2023-02-13T00:58:07;12.83;;;11.83;;
19235;SDS011;9752;54.270;12.470;2023-02-13T01:03:08;13.90;;;12.60;;
19235;SDS011;9752;54.270;12.470;2023-02-13T01:08:10;11.80;;;10.83;;
19235;SDS011;9752;54.270;12.470;2023-02-13T01:13:17;11.90;;;10.90;;
19235;SDS011;9752;54.270;12.470;2023-02-13T01:18:19;11.83;;;11.03;;
19235;SDS011;9752;54.270;12.470;2023-02-13T01:23:20;12.67;;;11.40;;
19235;SDS011;9752;54.270;12.470;2023-02-13T01:28:26;12.57;;;11.77;;
19235;SDS011;9752;54.270;12.470;2023-02-13T01:33:28;12.80;;;11.80;;
19235;SDS011;9752;54.270;12.470;2023-02-13T01:38:30;12.67;;;11.67;;
19235;SDS011;9752;54.270;12.470;2023-02-13T01:43:48;12.50;;;11.40;;
19235;SDS011;9752;54.270;12.470;2023-02-13T01:48:53;15.80;;;11.03;;
19235;SDS011;9752;54.270;12.470;2023-02-13T01:53:59;12.03;;;10.87;;
19235;SDS011;9752;54.270;12.470;2023-02-13T01:59:08;14.47;;;11.27;;
19235;SDS011;9752;54.270;12.470;2023-02-13T02:04:14;11.67;;;10.63;;
19235;SDS011;9752;54.270;12.470;2023-02-13T02:09:22;12.30;;;11.30;;
19235;SDS011;9752;54.270;12.470;2023-02-13T02:14:28;12.30;;;11.20;;
19235;SDS011;9752;54.270;12.470;2023-02-13T02:19:33;11.77;;;10.77;;
19235;SDS011;9752;54.270;12.470;2023-02-13T02:24:43;11.83;;;10.80;;
19235;SDS011;9752;54.270;12.470;2023-02-13T02:30:13;10.27;;;9.57;;
19235;SDS011;9752;54.270;12.470;2023-02-13T02:35:35;11.27;;;10.33;;
19235;SDS011;9752;54.270;12.470;2023-02-13T02:40:49;10.80;;;9.87;;
19235;SDS011;9752;54.270;12.470;2023-02-13T02:45:59;10.47;;;9.67;;
19235;SDS011;9752;54.270;12.470;2023-02-13T02:51:10;10.80;;;10.00;;
19235;SDS011;9752;54.270;12.470;2023-02-13T02:56:24;10.93;;;9.93;;
19235;SDS011;9752;54.270;12.470;2023-02-13T03:01:31;10.47;;;9.73;;
19235;SDS011;9752;54.270;12.470;2023-02-13T03:06:55;10.40;;;9.80;;
19235;SDS011;9752;54.270;12.470;2023-02-13T03:12:00;11.47;;;10.63;;
19235;SDS011;9752;54.270;12.470;2023-02-13T03:17:19;10.97;;;9.97;;
19235;SDS011;9752;54.270;12.470;2023-02-13T03:22:43;10.07;;;9.47;;
19235;SDS011;9752;54.270;12.470;2023-02-13T03:27:54;10.63;;;9.97;;
19235;SDS011;9752;54.270;12.470;2023-02-13T03:33:19;10.13;;;9.67;;
19235;SDS011;9752;54.270;12.470;2023-02-13T03:38:39;11.20;;;10.40;;
19235;SDS011;9752;54.270;12.470;2023-02-13T03:43:49;10.73;;;10.13;;
19235;SDS011;9752;54.270;12.470;2023-02-13T03:48:59;10.30;;;9.83;;
19235;SDS011;9752;54.270;12.470;2023-02-13T03:54:22;11.37;;;10.67;;
19235;SDS011;9752;54.270;12.470;2023-02-13T03:59:46;11.07;;;10.37;;
19235;SDS011;9752;54.270;12.470;2023-02-13T04:04:49;11.13;;;10.63;;
19235;SDS011;9752;54.270;12.470;2023-02-13T04:09:55;11.53;;;10.93;;
19235;SDS011;9752;54.270;12.470;2023-02-13T04:15:01;12.30;;;11.60;;
19235;SDS011;9752;54.270;12.470;2023-02-13T04:20:10;12.30;;;11.50;;
19235;SDS011;9752;54.270;12.470;2023-02-13T04:25:15;13.23;;;12.10;;
19235;SDS011;9752;54.270;12.470;2023-02-13T04:30:17;12.63;;;11.80;;
19235;SDS011;9752;54.270;12.470;2023-02-13T04:35:20;12.47;;;11.57;;
19235;SDS011;9752;54.270;12.470;2023-02-13T04:40:23;13.33;;;12.03;;
19235;SDS011;9752;54.270;12.470;2023-02-13T04:45:25;12.10;;;11.20;;
19235;SDS011;9752;54.270;12.470;2023-02-13T04:50:26;13.13;;;12.17;;
19235;SDS011;9752;54.270;12.470;2023-02-13T04:55:30;15.17;;;13.60;;
19235;SDS011;9752;54.270;12.470;2023-02-13T05:00:31;15.17;;;13.97;;
19235;SDS011;9752;54.270;12.470;2023-02-13T05:05:33;14.80;;;13.63;;
19235;SDS011;9752;54.270;12.470;2023-02-13T05:10:37;15.33;;;14.07;;
19235;SDS011;9752;54.270;12.470;2023-02-13T05:15:38;15.33;;;14.23;;
19235;SDS011;9752;54.270;12.470;2023-02-13T05:20:40;15.37;;;14.33;;
19235;SDS011;9752;54.270;12.470;2023-02-13T05:25:43;16.47;;;15.17;;
19235;SDS011;9752;54.270;12.470;2023-02-13T05:30:45;15.57;;;14.37;;
19235;SDS011;9752;54.270;12.470;2023-02-13T05:35:47;15.53;;;14.23;;
19235;SDS011;9752;54.270;12.470;2023-02-13T05:40:50;15.63;;;14.10;;
19235;SDS011;9752;54.270;12.470;2023-02-13T05:45:59;14.93;;;13.57;;
19235;SDS011;9752;54.270;12.470;2023-02-13T05:51:01;16.27;;;13.43;;
19235;SDS011;9752;54.270;12.470;2023-02-13T05:56:06;14.30;;;13.10;;
19235;SDS011;9752;54.270;12.470;2023-02-13T06:01:08;14.83;;;13.47;;
19235;SDS011;9752;54.270;12.470;2023-02-13T06:06:09;16.40;;;15.00;;
19235;SDS011;9752;54.270;12.470;2023-02-13T06:11:13;14.83;;;13.43;;
19235;SDS011;9752;54.270;12.470;2023-02-13T06:16:14;16.40;;;14.80;;
19235;SDS011;9752;54.270;12.470;2023-02-13T06:21:16;15.37;;;13.97;;
19235;SDS011;9752;54.270;12.470;2023-02-13T06:26:19;14.47;;;13.27;;
19235;SDS011;9752;54.270;12.470;2023-02-13T06:31:21;16.10;;;14.70;;
19235;SDS011;9752;54.270;12.470;2023-02-13T06:36:24;14.93;;;13.43;;
19235;SDS011;9752;54.270;12.470;2023-02-13T06:41:27;15.00;;;13.67;;
19235;SDS011;9752;54.270;12.470;2023-02-13T06:46:28;14.37;;;13.27;;
19235;SDS011;9752;54.270;12.470;2023-02-13T06:51:30;15.40;;;13.97;;
19235;SDS011;9752;54.270;12.470;2023-02-13T06:56:33;15.10;;;14.00;;
19235;SDS011;9752;54.270;12.470;2023-02-13T07:01:35;14.43;;;13.37;;
19235;SDS011;9752;54.270;12.470;2023-02-13T07:06:36;13.90;;;12.70;;
19235;SDS011;9752;54.270;12.470;2023-02-13T07:11:40;14.40;;;13.00;;
19235;SDS011;9752;54.270;12.470;2023-02-13T07:16:41;12.97;;;11.87;;
19235;SDS011;9752;54.270;12.470;2023-02-13T07:21:43;14.03;;;12.80;;
19235;SDS011;9752;54.270;12.470;2023-02-13T07:26:46;12.63;;;11.53;;
19235;SDS011;9752;54.270;12.470;2023-02-13T07:31:48;13.73;;;12.50;;
19235;SDS011;9752;54.270;12.470;2023-02-13T07:36:49;13.47;;;12.27;;
19235;SDS011;9752;54.270;12.470;2023-02-13T07:41:52;13.07;;;12.07;;
19235;SDS011;9752;54.270;12.470;2023-02-13T07:46:59;12.30;;;11.27;;
19235;SDS011;9752;54.270;12.470;2023-02-13T07:52:01;13.73;;;12.50;;
19235;SDS011;9752;54.270;12.470;2023-02-13T07:57:04;14.00;;;12.77;;
19235;SDS011;9752;54.270;12.470;2023-02-13T08:02:07;14.80;;;13.43;;
19235;SDS011;9752;54.270;12.470;2023-02-13T08:07:11;14.00;;;12.90;;
19235;SDS011;9752;54.270;12.470;2023-02-13T08:12:14;13.93;;;12.80;;
19235;SDS011;9752;54.270;12.470;2023-02-13T08:17:16;13.47;;;12.37;;
19235;SDS011;9752;54.270;12.470;2023-02-13T08:22:17;14.57;;;13.23;;
19235;SDS011;9752;54.270;12.470;2023-02-13T08:27:20;13.77;;;12.77;;
19235;SDS011;9752;54.270;12.470;2023-02-13T08:32:23;12.83;;;11.90;;
19235;SDS011;9752;54.270;12.470;2023-02-13T08:37:25;13.07;;;12.00;;
19235;SDS011;9752;54.270;12.470;2023-02-13T08:42:28;13.37;;;12.13;;
19235;SDS011;9752;54.270;12.470;2023-02-13T08:47:30;13.33;;;12.07;;
19235;SDS011;9752;54.270;12.470;2023-02-13T08:52:31;13.50;;;12.27;;
19235;SDS011;9752;54.270;12.470;2023-02-13T08:57:34;15.60;;;12.83;;
19235;SDS011;9752;54.270;12.470;2023-02-13T09:02:36;14.07;;;12.73;;
19235;SDS011;9752;54.270;12.470;2023-02-13T09:07:38;15.77;;;14.30;;
19235;SDS011;9752;54.270;12.470;2023-02-13T09:12:41;14.47;;;13.30;;
19235;SDS011;9752;54.270;12.470;2023-02-13T09:17:42;13.93;;;12.63;;
19235;SDS011;9752;54.270;12.470;2023-02-13T09:22:44;15.27;;;13.23;;
19235;SDS011;9752;54.270;12.470;2023-02-13T09:27:47;14.40;;;12.97;;
19235;SDS011;9752;54.270;12.470;2023-02-13T09:32:49;14.43;;;13.23;;
19235;SDS011;9752;54.270;12.470;2023-02-13T09:37:51;15.50;;;14.07;;
19235;SDS011;9752;54.270;12.470;2023-02-13T09:42:55;14.93;;;13.63;;
19235;SDS011;9752;54.270;12.470;2023-02-13T09:48:05;16.30;;;14.77;;
19235;SDS011;9752;54.270;12.470;2023-02-13T09:53:12;16.00;;;14.37;;
19235;SDS011;9752;54.270;12.470;2023-02-13T09:58:38;14.97;;;13.47;;
19235;SDS011;9752;54.270;12.470;2023-02-13T10:03:42;15.83;;;14.37;;
19235;SDS011;9752;54.270;12.470;2023-02-13T10:08:51;15.73;;;14.33;;
19235;SDS011;9752;54.270;12.470;2023-02-13T10:14:06;17.13;;;15.43;;
19235;SDS011;9752;54.270;12.470;2023-02-13T10:19:26;16.17;;;14.57;;
19235;SDS011;9752;54.270;12.470;2023-02-13T10:24:34;16.30;;;14.87;;
19235;SDS011;9752;54.270;12.470;2023-02-13T10:29:42;16.10;;;14.50;;
19235;SDS011;9752;54.270;12.470;2023-02-13T10:35:09;16.30;;;14.60;;
19235;SDS011;9752;54.270;12.470;2023-02-13T10:40:19;16.97;;;15.23;;
19235;SDS011;9752;54.270;12.470;2023-02-13T10:45:26;18.47;;;14.93;;
19235;SDS011;9752;54.270;12.470;2023-02-13T10:50:41;16.47;;;14.87;;
19235;SDS011;9752;54.270;12.470;2023-02-13T10:56:09;17.80;;;16.07;;
19235;SDS011;9752;54.270;12.470;2023-02-13T11:01:24;16.00;;;14.60;;
19235;SDS011;9752;54.270;12.470;2023-02-13T11:06:33;18.50;;;16.17;;
19235;SDS011;9752;54.270;12.470;2023-02-13T11:11:37;16.20;;;14.50;;
19235;SDS011;9752;54.270;12.470;2023-02-13T11:16:46;16.57;;;15.17;;
19235;SDS011;9752;54.270;12.470;2023-02-13T11:21:53;17.30;;;15.67;;
19235;SDS011;9752;54.270;12.470;2023-02-13T11:26:57;16.27;;;14.83;;
19235;SDS011;9752;54.270;12.470;2023-02-13T11:32:05;16.60;;;15.13;;
19235;SDS011;9752;54.270;12.470;2023-02-13T11:37:19;17.37;;;15.47;;
19235;SDS011;9752;54.270;12.470;2023-02-13T11:42:29;16.70;;;15.00;;
19235;SDS011;9752;54.270;12.470;2023-02-13T11:47:37;15.43;;;14.10;;
19235;SDS011;9752;54.270;12.470;2023-02-13T11:52:40;17.40;;;15.70;;
19235;SDS011;9752;54.270;12.470;2023-02-13T11:57:43;17.07;;;15.60;;
19235;SDS011;9752;54.270;12.470;2023-02-13T12:02:58;16.97;;;15.47;;
19235;SDS011;9752;54.270;12.470;2023-02-13T12:08:00;16.73;;;15.07;;
19235;SDS011;9752;54.270;12.470;2023-02-13T12:13:04;17.53;;;15.93;;
19235;SDS011;9752;54.270;12.470;2023-02-13T12:18:16;17.00;;;15.40;;
19235;SDS011;9752;54.270;12.470;2023-02-13T12:23:26;16.40;;;15.03;;
19235;SDS011;9752;54.270;12.470;2023-02-13T12:28:37;17.83;;;15.97;;
19235;SDS011;9752;54.270;12.470;2023-02-13T12:34:13;16.73;;;15.10;;
19235;SDS011;9752;54.270;12.470;2023-02-13T12:39:53;16.57;;;15.17;;
19235;SDS011;9752;54.270;12.470;2023-02-13T12:45:15;16.10;;;14.70;;
19235;SDS011;9752;54.270;12.470;2023-02-13T12:50:30;17.20;;;15.80;;
19235;SDS011;9752;54.270;12.470;2023-02-13T12:55:54;15.13;;;13.73;;
19235;SDS011;9752;54.270;12.470;2023-02-13T13:01:11;14.73;;;13.03;;
19235;SDS011;9752;54.270;12.470;2023-02-13T13:11:59;15.43;;;14.10;;
19235;SDS011;9752;54.270;12.470;2023-02-13T13:17:14;15.93;;;13.13;;
19235;SDS011;9752;54.270;12.470;2023-02-13T13:22:30;14.83;;;13.43;;
19235;SDS011;9752;54.270;12.470;2023-02-13T13:27:35;13.50;;;12.50;;
19235;SDS011;9752;54.270;12.470;2023-02-13T13:32:39;13.60;;;12.27;;
19235;SDS011;9752;54.270;12.470;2023-02-13T13:37:45;13.43;;;12.43;;
19235;SDS011;9752;54.270;12.470;2023-02-13T13:43:02;12.93;;;11.83;;
19235;SDS011;9752;54.270;12.470;2023-02-13T13:48:16;12.67;;;11.73;;
19235;SDS011;9752;54.270;12.470;2023-02-13T13:53:33;13.53;;;12.47;;
19235;SDS011;9752;54.270;12.470;2023-02-13T13:58:36;13.13;;;12.03;;
19235;SDS011;9752;54.270;12.470;2023-02-13T14:03:40;14.37;;;13.17;;
19235;SDS011;9752;54.270;12.470;2023-02-13T14:08:55;13.20;;;12.00;;
19235;SDS011;9752;54.270;12.470;2023-02-13T14:13:59;12.20;;;11.20;;
19235;SDS011;9752;54.270;12.470;2023-02-13T14:19:01;13.07;;;12.17;;
19235;SDS011;9752;54.270;12.470;2023-02-13T14:24:04;12.70;;;11.73;;
19235;SDS011;9752;54.270;12.470;2023-02-13T14:29:22;12.97;;;12.00;;
19235;SDS011;9752;54.270;12.470;2023-02-13T14:34:28;11.97;;;11.17;;
19235;SDS011;9752;54.270;12.470;2023-02-13T14:39:34;12.40;;;11.60;;
19235;SDS011;9752;54.270;12.470;2023-02-13T14:44:37;12.20;;;11.07;;
19235;SDS011;9752;54.270;12.470;2023-02-13T14:49:46;12.13;;;11.20;;
19235;SDS011;9752;54.270;12.470;2023-02-13T14:54:53;10.90;;;10.30;;
19235;SDS011;9752;54.270;12.470;2023-02-13T15:00:00;10.80;;;10.10;;
19235;SDS011;9752;54.270;12.470;2023-02-13T15:05:10;10.60;;;9.90;;
19235;SDS011;9752;54.270;12.470;2023-02-13T15:10:26;11.60;;;10.60;;
19235;SDS011;9752;54.270;12.470;2023-02-13T15:15:35;11.80;;;10.70;;
19235;SDS011;9752;54.270;12.470;2023-02-13T15:20:38;12.10;;;11.10;;
19235;SDS011;9752;54.270;12.470;2023-02-13T15:25:44;11.87;;;10.87;;
19235;SDS011;9752;54.270;12.470;2023-02-13T15:30:52;12.10;;;11.07;;
19235;SDS011;9752;54.270;12.470;2023-02-13T15:35:57;11.53;;;10.57;;
19235;SDS011;9752;54.270;12.470;2023-02-13T15:41:02;10.73;;;10.03;;
19235;SDS011;9752;54.270;12.470;2023-02-13T15:46:07;11.10;;;10.23;;
19235;SDS011;9752;54.270;12.470;2023-02-13T15:51:20;10.60;;;9.63;;
19235;SDS011;9752;54.270;12.470;2023-02-13T15:56:25;11.27;;;9.20;;
19235;SDS011;9752;54.270;12.470;2023-02-13T16:01:27;12.00;;;8.97;;
19235;SDS011;9752;54.270;12.470;2023-02-13T16:06:31;10.03;;;9.13;;
19235;SDS011;9752;54.270;12.470;2023-02-13T16:11:35;11.63;;;10.43;;
19235;SDS011;9752;54.270;12.470;2023-02-13T16:16:43;11.23;;;10.30;;
19235;SDS011;9752;54.270;12.470;2023-02-13T16:21:51;10.70;;;9.77;;
19235;SDS011;9752;54.270;12.470;2023-02-13T16:26:56;10.70;;;9.90;;
19235;SDS011;9752;54.270;12.470;2023-02-13T16:32:02;10.23;;;9.43;;
19235;SDS011;9752;54.270;12.470;2023-02-13T16:37:25;9.97;;;9.13;;
19235;SDS011;9752;54.270;12.470;2023-02-13T16:42:29;10.93;;;10.03;;
19235;SDS011;9752;54.270;12.470;2023-02-13T16:47:31;10.53;;;9.43;;
19235;SDS011;9752;54.270;12.470;2023-02-13T16:52:36;9.83;;;9.03;;
19235;SDS011;9752;54.270;12.470;2023-02-13T16:57:39;10.63;;;9.23;;
19235;SDS011;9752;54.270;12.470;2023-02-13T17:02:44;9.73;;;8.90;;
19235;SDS011;9752;54.270;12.470;2023-02-13T17:07:47;8.97;;;7.80;;
19235;SDS011;9752;54.270;12.470;2023-02-13T17:12:52;10.03;;;9.07;;
19235;SDS011;9752;54.270;12.470;2023-02-13T17:17:54;8.97;;;8.20;;
19235;SDS011;9752;54.270;12.470;2023-02-13T17:22:57;11.00;;;9.47;;
19235;SDS011;9752;54.270;12.470;2023-02-13T17:28:06;9.03;;;8.20;;
19235;SDS011;9752;54.270;12.470;2023-02-13T17:33:13;9.13;;;8.33;;
19235;SDS011;9752;54.270;12.470;2023-02-13T17:38:19;10.07;;;8.83;;
19235;SDS011;9752;54.270;12.470;2023-02-13T17:43:22;9.53;;;8.50;;
19235;SDS011;9752;54.270;12.470;2023-02-13T17:48:26;9.70;;;8.40;;
19235;SDS011;9752;54.270;12.470;2023-02-13T17:53:28;9.90;;;8.90;;
19235;SDS011;9752;54.270;12.470;2023-02-13T17:58:32;9.93;;;8.80;;
19235;SDS011;9752;54.270;12.470;2023-02-13T18:03:33;10.73;;;9.70;;
19235;SDS011;9752;54.270;12.470;2023-02-13T18:08:35;11.63;;;10.43;;
19235;SDS011;9752;54.270;12.470;2023-02-13T18:13:38;14.77;;;8.73;;
19235;SDS011;9752;54.270;12.470;2023-02-13T18:18:47;10.20;;;9.20;;
19235;SDS011;9752;54.270;12.470;2023-02-13T18:23:50;10.37;;;9.23;;
19235;SDS011;9752;54.270;12.470;2023-02-13T18:28:53;10.47;;;9.37;;
19235;SDS011;9752;54.270;12.470;2023-02-13T18:33:55;10.77;;;9.20;;
19235;SDS011;9752;54.270;12.470;2023-02-13T18:38:57;10.10;;;9.10;;
19235;SDS011;9752;54.270;12.470;2023-02-13T18:44:00;11.57;;;9.70;;
19235;SDS011;9752;54.270;12.470;2023-02-13T18:49:02;10.60;;;9.70;;
19235;SDS011;9752;54.270;12.470;2023-02-13T18:54:04;10.87;;;9.77;;
19235;SDS011;9752;54.270;12.470;2023-02-13T18:59:08;11.27;;;10.17;;
19235;SDS011;9752;54.270;12.470;2023-02-13T19:04:10;11.70;;;10.53;;
19235;SDS011;9752;54.270;12.470;2023-02-13T19:09:13;11.73;;;9.37;;
19235;SDS011;9752;54.270;12.470;2023-02-13T19:14:16;10.90;;;10.13;;
19235;SDS011;9752;54.270;12.470;2023-02-13T19:19:17;12.20;;;10.97;;
19235;SDS011;9752;54.270;12.470;2023-02-13T19:24:19;11.87;;;10.87;;
19235;SDS011;9752;54.270;12.470;2023-02-13T19:29:22;12.33;;;11.30;;
19235;SDS011;9752;54.270;12.470;2023-02-13T19:34:24;11.57;;;10.63;;
19235;SDS011;9752;54.270;12.470;2023-02-13T19:39:26;15.37;;;10.53;;
19235;SDS011;9752;54.270;12.470;2023-02-13T19:44:30;17.13;;;11.27;;
19235;SDS011;9752;54.270;12.470;2023-02-13T19:49:32;12.87;;;11.53;;
19235;SDS011;9752;54.270;12.470;2023-02-13T19:54:33;14.10;;;11.30;;
19235;SDS011;9752;54.270;12.470;2023-02-13T19:59:36;12.63;;;11.33;;
19235;SDS011;9752;54.270;12.470;2023-02-13T20:04:38;12.40;;;11.10;;
19235;SDS011;9752;54.270;12.470;2023-02-13T20:09:40;14.90;;;11.97;;
19235;SDS011;9752;54.270;12.470;2023-02-13T20:14:43;11.70;;;10.60;;
19235;SDS011;9752;54.270;12.470;2023-02-13T20:19:45;12.60;;;11.40;;
19235;SDS011;9752;54.270;12.470;2023-02-13T20:24:47;15.47;;;11.67;;
19235;SDS011;9752;54.270;12.470;2023-02-13T20:29:50;11.90;;;10.77;;
19235;SDS011;9752;54.270;12.470;2023-02-13T20:34:51;13.10;;;11.87;;
19235;SDS011;9752;54.270;12.470;2023-02-13T20:39:53;14.60;;;11.90;;
19235;SDS011;9752;54.270;12.470;2023-02-13T20:44:56;11.40;;;10.53;;
19235;SDS011;9752;54.270;12.470;2023-02-13T20:49:58;21.50;;;10.90;;
19235;SDS011;9752;54.270;12.470;2023-02-13T20:55:00;11.20;;;10.30;;
19235;SDS011;9752;54.270;12.470;2023-02-13T21:00:04;11.90;;;10.70;;
19235;SDS011;9752;54.270;12.470;2023-02-13T21:05:08;12.87;;;10.50;;
19235;SDS011;9752;54.270;12.470;2023-02-13T21:10:10;12.07;;;10.97;;
19235;SDS011;9752;54.270;12.470;2023-02-13T21:15:13;14.77;;;11.13;;
19235;SDS011;9752;54.270;12.470;2023-02-13T21:20:14;12.20;;;11.03;;
19235;SDS011;9752;54.270;12.470;2023-02-13T21:25:16;11.43;;;10.23;;
19235;SDS011;9752;54.270;12.470;2023-02-13T21:30:20;14.33;;;12.60;;
19235;SDS011;9752;54.270;12.470;2023-02-13T21:35:22;11.60;;;10.70;;
19235;SDS011;9752;54.270;12.470;2023-02-13T21:40:23;10.73;;;10.07;;
19235;SDS011;9752;54.270;12.470;2023-02-13T21:45:26;11.90;;;10.80;;
19235;SDS011;9752;54.270;12.470;2023-02-13T21:50:28;12.63;;;10.57;;
19235;SDS011;9752;54.270;12.470;2023-02-13T21:55:30;10.83;;;9.93;;
19235;SDS011;9752;54.270;12.470;2023-02-13T22:00:33;11.37;;;10.00;;
19235;SDS011;9752;54.270;12.470;2023-02-13T22:05:34;11.07;;;10.20;;
19235;SDS011;9752;54.270;12.470;2023-02-13T22:10:36;11.03;;;10.20;;
19235;SDS011;9752;54.270;12.470;2023-02-13T22:15:39;11.37;;;10.43;;
19235;SDS011;9752;54.270;12.470;2023-02-13T22:20:41;11.90;;;10.93;;
19235;SDS011;9752;54.270;12.470;2023-02-13T22:25:45;12.03;;;10.83;;
19235;SDS011;9752;54.270;12.470;2023-02-13T22:30:48;12.70;;;11.50;;
19235;SDS011;9752;54.270;12.470;2023-02-13T22:35:50;12.83;;;11.50;;
19235;SDS011;9752;54.270;12.470;2023-02-13T22:40:52;11.80;;;10.80;;
19235;SDS011;9752;54.270;12.470;2023-02-13T22:45:55;11.07;;;10.23;;
19235;SDS011;9752;54.270;12.470;2023-02-13T22:51:02;12.53;;;11.33;;
19235;SDS011;9752;54.270;12.470;2023-02-13T22:56:05;12.00;;;11.07;;
19235;SDS011;9752;54.270;12.470;2023-02-13T23:01:10;11.43;;;10.60;;
19235;SDS011;9752;54.270;12.470;2023-02-13T23:06:12;11.83;;;10.67;;
19235;SDS011;9752;54.270;12.470;2023-02-13T23:11:15;13.97;;;11.93;;
19235;SDS011;9752;54.270;12.470;2023-02-13T23:16:37;11.47;;;10.47;;
19235;SDS011;9752;54.270;12.470;2023-02-13T23:21:56;11.87;;;10.77;;
19235;SDS011;9752;54.270;12.470;2023-02-13T23:26:58;13.93;;;11.47;;
19235;SDS011;9752;54.270;12.470;2023-02-13T23:32:01;13.67;;;12.40;;
19235;SDS011;9752;54.270;12.470;2023-02-13T23:37:03;11.90;;;10.73;;
19235;SDS011;9752;54.270;12.470;2023-02-13T23:42:05;12.60;;;11.40;;
19235;SDS011;9752;54.270;12.470;2023-02-13T23:47:08;12.50;;;11.30;;
19235;SDS011;9752;54.270;12.470;2023-02-13T23:52:10;11.87;;;10.77;;
19235;SDS011;9752;54.270;12.470;2023-02-13T23:57:11;11.73;;;10.67;;
